Time;durP1;ratioP1;P1;durP2;ratioP2;P2;SDS_P1;SDS_P2;PMS_P1;PMS_P2;Temp;Humidity;BMP_temperature;BMP_pressure;BME280_temperature;BME280_humidity;BME280_pressure;Samples;Min_cycle;Max_cycle;Signal;HPM_P1;HPM_P2
2022/04/22 00:02:22;;;;;;;7.78;5.30;;;;;;;;;;5007461;28;20053;-86
2022/04/22 00:04:48;;;;;;;8.73;5.47;;;;;;;;;;5007014;28;20120;-86
2022/04/22 00:07:14;;;;;;;8.40;5.82;;;;;;;;;;5019842;28;20137;-87
2022/04/22 00:09:40;;;;;;;7.53;5.63;;;;;;;;;;5008014;28;20041;-87
2022/04/22 00:12:06;;;;;;;8.43;5.28;;;;;;;;;;5030999;28;20045;-87
2022/04/22 00:14:32;;;;;;;8.02;5.57;;;;;;;;;;5003585;28;20103;-86
2022/04/22 00:16:58;;;;;;;8.90;5.78;;;;;;;;;;5025858;28;20128;-87
2022/04/22 00:19:24;;;;;;;9.38;6.03;;;;;;;;;;5024312;28;20404;-86
2022/04/22 00:21:50;;;;;;;7.28;6.00;;;;;;;;;;5022783;28;20038;-86
2022/04/22 00:24:16;;;;;;;7.38;6.35;;;;;;;;;;5022790;28;20443;-86
2022/04/22 00:26:42;;;;;;;7.65;6.05;;;;;;;;;;5023135;28;20041;-86
2022/04/22 00:29:12;;;;;;;8.55;5.47;;;;;;;;;;5024659;28;20095;-86
2022/04/22 00:31:38;;;;;;;8.02;6.57;;;;;;;;;;5026020;28;20076;-86
2022/04/22 00:34:04;;;;;;;8.25;5.55;;;;;;;;;;5007396;28;20041;-86
2022/04/22 00:36:30;;;;;;;9.00;5.90;;;;;;;;;;5024361;28;20455;-85
2022/04/22 00:38:56;;;;;;;8.30;6.55;;;;;;;;;;5022351;28;20037;-86
2022/04/22 00:41:22;;;;;;;7.88;5.90;;;;;;;;;;5028303;28;20046;-86
2022/04/22 00:43:50;;;;;;;7.63;5.80;;;;;;;;;;5007317;28;20556;-86
2022/04/22 00:46:16;;;;;;;7.28;6.38;;;;;;;;;;5008499;28;20128;-86
2022/04/22 00:48:42;;;;;;;13.13;6.68;;;;;;;;;;5019017;28;20049;-86
2022/04/22 00:51:09;;;;;;;8.82;6.50;;;;;;;;;;5025763;28;20030;-85
2022/04/22 00:53:39;;;;;;;10.48;6.60;;;;;;;;;;5002412;28;20111;-86
2022/04/22 00:56:07;;;;;;;8.15;5.93;;;;;;;;;;5025066;28;20085;-86
2022/04/22 00:58:36;;;;;;;10.10;6.47;;;;;;;;;;5036267;28;20045;-86
2022/04/22 01:01:02;;;;;;;9.77;7.05;;;;;;;;;;5006387;28;20050;-86
2022/04/22 01:03:32;;;;;;;8.52;6.22;;;;;;;;;;5007782;28;20046;-86
2022/04/22 01:11:34;;;;;;;8.20;5.93;;;;;;;;;;5008580;28;20434;-86
2022/04/22 01:14:00;;;;;;;7.68;6.10;;;;;;;;;;5018217;28;20485;-86
2022/04/22 01:16:26;;;;;;;7.55;6.50;;;;;;;;;;5009544;28;20131;-86
2022/04/22 01:18:52;;;;;;;9.98;6.70;;;;;;;;;;5010944;28;20049;-85
2022/04/22 01:21:19;;;;;;;9.45;5.88;;;;;;;;;;5023656;28;20433;-85
2022/04/22 01:23:45;;;;;;;8.95;6.53;;;;;;;;;;5023275;28;20041;-86
2022/04/22 01:26:12;;;;;;;9.30;6.40;;;;;;;;;;5024747;28;20107;-86
2022/04/22 01:28:39;;;;;;;9.20;6.28;;;;;;;;;;5026044;28;20140;-85
2022/04/22 01:31:05;;;;;;;8.40;5.80;;;;;;;;;;5008997;28;20049;-86
2022/04/22 01:33:31;;;;;;;7.07;5.97;;;;;;;;;;5024895;28;20144;-86
2022/04/22 01:35:57;;;;;;;7.25;6.07;;;;;;;;;;5009821;28;20111;-85
2022/04/22 01:38:23;;;;;;;9.05;6.50;;;;;;;;;;5006148;28;20058;-86
2022/04/22 01:40:49;;;;;;;8.45;7.20;;;;;;;;;;5012620;28;20553;-85
2022/04/22 01:43:15;;;;;;;9.20;7.10;;;;;;;;;;5018583;28;20605;-86
2022/04/22 01:45:41;;;;;;;8.88;6.68;;;;;;;;;;5011125;28;20048;-85
2022/04/22 01:48:07;;;;;;;11.00;7.18;;;;;;;;;;5013816;28;20047;-85
2022/04/22 01:50:33;;;;;;;9.18;7.07;;;;;;;;;;5008280;28;20042;-86
2022/04/22 01:52:59;;;;;;;8.30;6.90;;;;;;;;;;5010373;28;20103;-85
2022/04/22 01:55:29;;;;;;;7.82;6.60;;;;;;;;;;5006620;28;20197;-86
2022/04/22 01:57:55;;;;;;;9.48;7.38;;;;;;;;;;5028093;28;20053;-85
2022/04/22 02:00:21;;;;;;;9.43;7.43;;;;;;;;;;5010500;28;20116;-86
2022/04/22 02:02:47;;;;;;;10.13;7.30;;;;;;;;;;5011325;28;20053;-85
2022/04/22 02:05:13;;;;;;;8.85;6.72;;;;;;;;;;5009800;28;20060;-85
2022/04/22 02:07:41;;;;;;;7.72;6.65;;;;;;;;;;5028480;28;20485;-86
2022/04/22 02:10:08;;;;;;;9.85;6.97;;;;;;;;;;5005830;28;20493;-85
2022/04/22 02:12:34;;;;;;;10.48;6.50;;;;;;;;;;5025981;28;20045;-86
2022/04/22 02:15:00;;;;;;;8.57;7.18;;;;;;;;;;5026727;28;20052;-85
2022/04/22 02:17:26;;;;;;;8.50;6.95;;;;;;;;;;5027680;28;20041;-86
2022/04/22 02:19:52;;;;;;;12.80;7.22;;;;;;;;;;5008631;28;20053;-86
2022/04/22 02:22:18;;;;;;;11.52;6.85;;;;;;;;;;5028420;28;20053;-86
2022/04/22 02:24:44;;;;;;;11.52;7.03;;;;;;;;;;5026626;28;20128;-86
2022/04/22 02:29:55;;;;;;;11.20;6.65;;;;;;;;;;5009972;28;20049;-85
2022/04/22 02:32:21;;;;;;;9.13;7.10;;;;;;;;;;5022505;28;20068;-85
2022/04/22 02:34:47;;;;;;;9.82;6.63;;;;;;;;;;5012496;28;20046;-85
2022/04/22 02:37:13;;;;;;;10.35;6.90;;;;;;;;;;5022879;28;20049;-85
2022/04/22 02:39:39;;;;;;;9.98;6.88;;;;;;;;;;5029783;28;20056;-86
2022/04/22 02:47:35;;;;;;;8.70;6.53;;;;;;;;;;5008967;28;20449;-85
2022/04/22 02:50:01;;;;;;;9.15;6.60;;;;;;;;;;5010461;28;20133;-86
2022/04/22 02:52:27;;;;;;;9.50;6.93;;;;;;;;;;5009775;28;20096;-86
2022/04/22 02:54:54;;;;;;;9.45;6.55;;;;;;;;;;5025040;28;20088;-86
2022/04/22 02:57:20;;;;;;;9.65;7.32;;;;;;;;;;5026784;28;20459;-85
2022/04/22 02:59:46;;;;;;;9.38;7.20;;;;;;;;;;5029616;28;20052;-85
2022/04/22 03:02:12;;;;;;;10.80;6.93;;;;;;;;;;5026547;28;20084;-85
2022/04/22 03:04:38;;;;;;;8.68;7.07;;;;;;;;;;5026617;28;20505;-86
2022/04/22 03:07:04;;;;;;;7.78;6.80;;;;;;;;;;5024895;28;20465;-86
2022/04/22 03:09:30;;;;;;;8.70;7.00;;;;;;;;;;5027323;28;20048;-86
2022/04/22 03:11:59;;;;;;;8.00;7.18;;;;;;;;;;5022698;28;20082;-85
2022/04/22 03:14:26;;;;;;;8.98;7.05;;;;;;;;;;5016676;28;20088;-86
2022/04/22 03:16:52;;;;;;;11.80;7.45;;;;;;;;;;5008371;28;20102;-85
2022/04/22 03:19:18;;;;;;;10.27;7.10;;;;;;;;;;5007365;28;20038;-85
2022/04/22 03:21:44;;;;;;;9.18;7.40;;;;;;;;;;5021486;28;20173;-86
2022/04/22 03:24:11;;;;;;;9.15;6.80;;;;;;;;;;5008904;28;20511;-85
2022/04/22 03:26:37;;;;;;;8.18;6.70;;;;;;;;;;5007389;28;20440;-85
2022/04/22 03:29:03;;;;;;;9.82;7.18;;;;;;;;;;5008768;28;20049;-85
2022/04/22 03:31:29;;;;;;;8.20;6.88;;;;;;;;;;5005787;28;20115;-85
2022/04/22 03:33:55;;;;;;;11.13;6.80;;;;;;;;;;5010156;28;20128;-85
2022/04/22 03:36:21;;;;;;;8.35;6.78;;;;;;;;;;5024299;28;20037;-85
2022/04/22 03:38:47;;;;;;;9.57;6.28;;;;;;;;;;5026833;28;20103;-85
2022/04/22 03:41:13;;;;;;;10.32;5.85;;;;;;;;;;5008306;28;20053;-85
2022/04/22 03:43:39;;;;;;;8.45;6.45;;;;;;;;;;5008090;28;20144;-85
2022/04/22 03:46:06;;;;;;;9.02;6.43;;;;;;;;;;5022543;28;20115;-85
2022/04/22 03:48:32;;;;;;;10.40;6.30;;;;;;;;;;5009358;28;20049;-85
2022/04/22 03:50:58;;;;;;;8.55;5.90;;;;;;;;;;5007947;28;20037;-85
2022/04/22 03:53:24;;;;;;;9.52;6.15;;;;;;;;;;5008208;28;20053;-85
2022/04/22 03:55:50;;;;;;;8.32;6.88;;;;;;;;;;5029337;28;20100;-84
2022/04/22 03:58:19;;;;;;;8.32;6.20;;;;;;;;;;5022687;28;20029;-84
2022/04/22 04:00:49;;;;;;;9.77;6.20;;;;;;;;;;5005323;28;20061;-84
2022/04/22 04:03:16;;;;;;;8.55;5.45;;;;;;;;;;5023627;28;20042;-84
2022/04/22 04:05:50;;;;;;;6.47;5.70;;;;;;;;;;5007235;28;20045;-84
2022/04/22 04:08:16;;;;;;;;;;;;;;;;;;5019294;28;20052;-85
2022/04/22 04:16:12;;;;;;;7.40;5.90;;;;;;;;;;5026016;28;20053;-85
2022/04/22 04:18:39;;;;;;;7.97;5.65;;;;;;;;;;5008334;28;20061;-85
2022/04/22 04:23:51;;;;;;;7.90;5.32;;;;;;;;;;5027064;28;20526;-84
2022/04/22 04:26:24;;;;;;;7.47;5.55;;;;;;;;;;5025764;28;20124;-84
2022/04/22 04:28:51;;;;;;;7.03;5.25;;;;;;;;;;5024658;28;20500;-84
2022/04/22 04:31:17;;;;;;;8.23;5.45;;;;;;;;;;5024630;28;20052;-85
2022/04/22 04:33:43;;;;;;;6.43;5.13;;;;;;;;;;5009769;28;20056;-84
2022/04/22 04:36:10;;;;;;;7.78;5.82;;;;;;;;;;5023338;28;20049;-84
2022/04/22 04:38:36;;;;;;;7.45;5.18;;;;;;;;;;5008105;28;20042;-85
2022/04/22 04:41:03;;;;;;;8.18;4.90;;;;;;;;;;5010631;28;20041;-86
2022/04/22 04:43:29;;;;;;;7.55;5.45;;;;;;;;;;5033164;28;20111;-85
2022/04/22 04:45:55;;;;;;;6.13;5.47;;;;;;;;;;5004566;28;20037;-85
2022/04/22 04:48:21;;;;;;;7.80;5.13;;;;;;;;;;5007641;28;20053;-85
2022/04/22 04:50:49;;;;;;;7.53;5.50;;;;;;;;;;5026150;28;20038;-86
2022/04/22 04:53:15;;;;;;;7.28;5.07;;;;;;;;;;5008363;28;20068;-85
2022/04/22 04:55:41;;;;;;;6.72;5.10;;;;;;;;;;5028773;28;20046;-86
2022/04/22 04:58:07;;;;;;;8.85;4.75;;;;;;;;;;5025590;28;20038;-85
2022/04/22 05:00:34;;;;;;;6.20;4.95;;;;;;;;;;5024422;28;20103;-85
2022/04/22 05:03:00;;;;;;;8.20;4.75;;;;;;;;;;5008295;28;20045;-86
2022/04/22 05:05:26;;;;;;;10.00;5.15;;;;;;;;;;5024962;28;20136;-86
2022/04/22 05:07:57;;;;;;;12.48;5.13;;;;;;;;;;5008765;28;20052;-85
2022/04/22 05:10:24;;;;;;;6.38;4.43;;;;;;;;;;5026882;28;20084;-85
2022/04/22 05:12:50;;;;;;;7.05;5.18;;;;;;;;;;5026899;28;20060;-85
2022/04/22 05:15:17;;;;;;;7.07;4.80;;;;;;;;;;5019089;28;20160;-85
2022/04/22 05:17:43;;;;;;;6.35;4.55;;;;;;;;;;5012094;28;20408;-85
2022/04/22 05:20:10;;;;;;;6.13;4.47;;;;;;;;;;5027483;28;20087;-85
2022/04/22 05:22:36;;;;;;;6.20;4.43;;;;;;;;;;5013683;28;20054;-85
2022/04/22 05:25:04;;;;;;;8.65;4.45;;;;;;;;;;5030343;28;20042;-85
2022/04/22 05:27:31;;;;;;;4.32;3.92;;;;;;;;;;5013273;28;20041;-85
2022/04/22 05:32:47;;;;;;;5.20;4.15;;;;;;;;;;5026055;28;20091;-85
2022/04/22 05:35:13;;;;;;;6.95;4.18;;;;;;;;;;5029229;28;20046;-84
2022/04/22 05:37:46;;;;;;;4.70;4.13;;;;;;;;;;5031366;28;20037;-86
2022/04/22 05:40:13;;;;;;;5.88;4.60;;;;;;;;;;5004938;28;20099;-86
2022/04/22 05:42:39;;;;;;;7.22;4.45;;;;;;;;;;5017430;28;20144;-86
2022/04/22 05:45:06;;;;;;;4.63;4.10;;;;;;;;;;5008358;28;20049;-86
2022/04/22 05:47:33;;;;;;;7.10;4.10;;;;;;;;;;5012787;28;20912;-84
2022/04/22 05:49:59;;;;;;;6.07;4.28;;;;;;;;;;5012606;28;20049;-86
2022/04/22 05:52:25;;;;;;;5.13;4.00;;;;;;;;;;5025087;28;20057;-85
2022/04/22 05:54:51;;;;;;;5.95;3.88;;;;;;;;;;5007156;28;20505;-84
2022/04/22 05:57:17;;;;;;;6.55;3.97;;;;;;;;;;5022938;28;20088;-84
2022/04/22 05:59:43;;;;;;;5.80;3.50;;;;;;;;;;5020539;28;20037;-84
2022/04/22 06:02:09;;;;;;;4.35;3.65;;;;;;;;;;5025876;28;20045;-85
2022/04/22 06:04:35;;;;;;;8.00;3.70;;;;;;;;;;5026092;28;20135;-85
2022/04/22 06:07:01;;;;;;;4.65;3.30;;;;;;;;;;5029402;28;20049;-83
2022/04/22 06:12:13;;;;;;;4.75;3.40;;;;;;;;;;5026749;28;20045;-83
2022/04/22 06:14:39;;;;;;;5.75;3.60;;;;;;;;;;5026487;28;20064;-84
2022/04/22 06:17:05;;;;;;;4.82;3.60;;;;;;;;;;5026363;28;20053;-85
2022/04/22 06:19:31;;;;;;;4.30;3.50;;;;;;;;;;5012054;28;20053;-85
2022/04/22 06:21:57;;;;;;;4.28;3.55;;;;;;;;;;5013045;28;20115;-85
2022/04/22 06:24:26;;;;;;;5.07;3.65;;;;;;;;;;5021446;28;20093;-85
2022/04/22 06:26:52;;;;;;;3.38;3.05;;;;;;;;;;5029572;28;20048;-85
2022/04/22 06:29:21;;;;;;;4.32;3.17;;;;;;;;;;5027986;28;20577;-85
2022/04/22 06:31:48;;;;;;;4.68;3.40;;;;;;;;;;5010929;28;20034;-85
2022/04/22 06:34:14;;;;;;;5.60;3.33;;;;;;;;;;5028460;28;20115;-86
2022/04/22 06:36:40;;;;;;;6.53;3.10;;;;;;;;;;5005749;28;20057;-86
2022/04/22 06:39:06;;;;;;;4.68;3.40;;;;;;;;;;5023274;28;20048;-85
2022/04/22 06:47:04;;;;;;;3.00;2.70;;;;;;;;;;5026538;28;20107;-85
2022/04/22 06:49:31;;;;;;;6.35;3.20;;;;;;;;;;5009223;28;20090;-87
2022/04/22 06:51:57;;;;;;;5.18;2.88;;;;;;;;;;5007006;28;20042;-86
2022/04/22 06:54:23;;;;;;;4.60;3.00;;;;;;;;;;5030548;28;20110;-85
2022/04/22 06:56:49;;;;;;;4.82;3.15;;;;;;;;;;5030934;28;20057;-84
2022/04/22 06:59:19;;;;;;;5.05;3.30;;;;;;;;;;5002417;28;20116;-85
2022/04/22 07:01:46;;;;;;;4.40;3.25;;;;;;;;;;5031234;28;20110;-86
2022/04/22 07:04:12;;;;;;;4.47;3.25;;;;;;;;;;5010940;28;20564;-85
2022/04/22 07:06:38;;;;;;;3.28;2.63;;;;;;;;;;5030215;28;20099;-87
2022/04/22 07:09:07;;;;;;;3.70;3.40;;;;;;;;;;5014559;28;20179;-86
2022/04/22 07:11:35;;;;;;;3.30;2.97;;;;;;;;;;5026751;28;20045;-85
2022/04/22 07:14:01;;;;;;;3.20;2.90;;;;;;;;;;5028755;28;20501;-86
2022/04/22 07:16:28;;;;;;;4.57;3.05;;;;;;;;;;5006235;28;20047;-85
2022/04/22 07:18:59;;;;;;;3.92;2.85;;;;;;;;;;5011142;28;20175;-86
2022/04/22 07:21:26;;;;;;;3.40;3.10;;;;;;;;;;5028393;28;20049;-87
2022/04/22 07:23:52;;;;;;;4.75;3.03;;;;;;;;;;5012073;28;20054;-86
2022/04/22 07:26:19;;;;;;;4.20;2.80;;;;;;;;;;5024807;28;20493;-84
2022/04/22 07:28:46;;;;;;;5.40;3.35;;;;;;;;;;5003545;28;20043;-85
2022/04/22 07:31:13;;;;;;;4.47;3.00;;;;;;;;;;5007137;28;20497;-85
2022/04/22 07:33:39;;;;;;;5.20;2.70;;;;;;;;;;5029299;28;20045;-86
2022/04/22 07:36:05;;;;;;;5.45;2.60;;;;;;;;;;5015238;28;20037;-85
2022/04/22 07:38:31;;;;;;;5.38;2.70;;;;;;;;;;5025757;28;20049;-85
2022/04/22 07:40:57;;;;;;;3.90;2.95;;;;;;;;;;5023001;28;20049;-85
2022/04/22 07:48:55;;;;;;;4.55;2.70;;;;;;;;;;5005753;28;20049;-85
2022/04/22 07:51:23;;;;;;;3.35;2.60;;;;;;;;;;5026783;28;20041;-84
2022/04/22 07:53:49;;;;;;;5.03;3.00;;;;;;;;;;5007553;28;20384;-84
2022/04/22 07:56:15;;;;;;;4.53;2.92;;;;;;;;;;5024375;28;20053;-84
2022/04/22 07:58:41;;;;;;;5.13;2.65;;;;;;;;;;5021830;28;20041;-84
2022/04/22 08:01:08;;;;;;;3.53;2.72;;;;;;;;;;5005959;28;20046;-85
2022/04/22 08:03:34;;;;;;;5.30;3.30;;;;;;;;;;5023665;28;20060;-83
2022/04/22 08:06:00;;;;;;;3.05;2.70;;;;;;;;;;5026554;28;20053;-85
2022/04/22 08:08:28;;;;;;;3.33;3.03;;;;;;;;;;5010259;28;20080;-84
2022/04/22 08:10:55;;;;;;;6.75;3.00;;;;;;;;;;5010005;28;20048;-85
2022/04/22 08:13:26;;;;;;;2.85;2.58;;;;;;;;;;5023949;28;20045;-85
2022/04/22 08:15:52;;;;;;;6.15;2.72;;;;;;;;;;5018730;28;20053;-86
2022/04/22 08:18:18;;;;;;;3.50;2.70;;;;;;;;;;5032193;28;20037;-86
2022/04/22 08:20:44;;;;;;;5.40;2.90;;;;;;;;;;5031560;28;20044;-87
2022/04/22 08:23:11;;;;;;;3.67;2.97;;;;;;;;;;5002934;28;20145;-86
2022/04/22 08:25:37;;;;;;;3.33;2.90;;;;;;;;;;5020818;28;20084;-86
2022/04/22 08:28:03;;;;;;;5.90;2.80;;;;;;;;;;5006626;28;20128;-84
2022/04/22 08:30:30;;;;;;;4.88;3.00;;;;;;;;;;5009902;28;20508;-85
2022/04/22 08:32:56;;;;;;;5.68;3.10;;;;;;;;;;5031043;28;20037;-87
2022/04/22 08:35:22;;;;;;;7.60;3.30;;;;;;;;;;5011141;28;20373;-89
2022/04/22 08:37:48;;;;;;;3.67;2.95;;;;;;;;;;5029423;28;20053;-87
2022/04/22 08:40:15;;;;;;;3.35;2.83;;;;;;;;;;5023025;28;20038;-86
2022/04/22 08:42:44;;;;;;;5.13;3.08;;;;;;;;;;5010263;28;20049;-85
2022/04/22 08:45:10;;;;;;;5.13;3.10;;;;;;;;;;5003807;28;20072;-85
2022/04/22 08:50:21;;;;;;;5.38;3.05;;;;;;;;;;5025002;28;20514;-87
2022/04/22 08:52:55;;;;;;;5.05;3.10;;;;;;;;;;5010039;28;20046;-85
2022/04/22 08:55:23;;;;;;;4.40;3.05;;;;;;;;;;5007563;28;20054;-87
2022/04/22 08:57:49;;;;;;;5.22;3.20;;;;;;;;;;5006254;28;20053;-73
2022/04/22 09:00:16;;;;;;;9.15;3.30;;;;;;;;;;5028769;28;20049;-86
2022/04/22 09:02:42;;;;;;;5.47;3.33;;;;;;;;;;5015296;28;20065;-89
2022/04/22 09:05:09;;;;;;;3.80;3.28;;;;;;;;;;5028990;28;20147;-87
2022/04/22 09:07:35;;;;;;;7.47;3.35;;;;;;;;;;5015188;28;20064;-87
2022/04/22 09:10:01;;;;;;;7.35;3.58;;;;;;;;;;5031618;28;20069;-87
2022/04/22 09:12:28;;;;;;;4.97;2.83;;;;;;;;;;5013693;28;20076;-88
2022/04/22 09:14:56;;;;;;;6.47;3.30;;;;;;;;;;5029496;28;20095;-88
2022/04/22 09:17:29;;;;;;;8.35;2.97;;;;;;;;;;5030633;28;20053;-87
2022/04/22 09:19:57;;;;;;;4.28;2.85;;;;;;;;;;5030563;28;20508;-85
2022/04/22 09:22:28;;;;;;;6.32;3.08;;;;;;;;;;5032190;28;20049;-89
2022/04/22 09:24:54;;;;;;;6.88;3.30;;;;;;;;;;5031599;28;20037;-88
2022/04/22 09:27:20;;;;;;;4.03;2.80;;;;;;;;;;5009504;28;20060;-87
2022/04/22 09:29:56;;;;;;;3.25;2.88;;;;;;;;;;5029383;28;20048;-86
2022/04/22 09:32:26;;;;;;;5.70;3.13;;;;;;;;;;5027831;28;20515;-87
2022/04/22 09:34:52;;;;;;;6.93;3.42;;;;;;;;;;5014695;28;20049;-87
2022/04/22 09:42:50;;;;;;;5.45;3.20;;;;;;;;;;5033296;28;20129;-88
2022/04/22 09:45:16;;;;;;;5.90;3.08;;;;;;;;;;5014864;28;20056;-86
2022/04/22 09:47:42;;;;;;;3.55;2.78;;;;;;;;;;5022316;28;20140;-86
2022/04/22 09:50:12;;;;;;;4.75;3.33;;;;;;;;;;5023704;28;20056;-89
2022/04/22 09:52:43;;;;;;;5.22;2.70;;;;;;;;;;5017109;28;20126;-86
2022/04/22 09:55:10;;;;;;;5.07;2.97;;;;;;;;;;5031144;28;20089;-87
2022/04/22 09:57:55;;;;;;;5.38;3.17;;;;;;;;;;5002094;28;20069;-87
2022/04/22 10:00:25;;;;;;;6.75;3.10;;;;;;;;;;5028334;28;20050;-87
2022/04/22 10:02:52;;;;;;;4.22;2.53;;;;;;;;;;5027002;28;20544;-87
2022/04/22 10:05:19;;;;;;;5.82;3.08;;;;;;;;;;5031629;28;20042;-88
2022/04/22 10:07:45;;;;;;;5.00;3.47;;;;;;;;;;5029510;28;20045;-89
2022/04/22 10:10:12;;;;;;;6.55;3.33;;;;;;;;;;5026336;28;20037;-90
2022/04/22 10:12:39;;;;;;;3.63;3.25;;;;;;;;;;5022042;28;20045;-83
2022/04/22 10:15:08;;;;;;;5.38;3.78;;;;;;;;;;5033803;28;20168;-87
2022/04/22 10:17:37;;;;;;;8.15;3.28;;;;;;;;;;5010203;28;20751;-82
2022/04/22 10:20:04;;;;;;;4.70;2.92;;;;;;;;;;5029384;28;20438;-89
2022/04/22 10:22:31;;;;;;;4.00;2.92;;;;;;;;;;5027709;28;20139;-83
2022/04/22 10:24:58;;;;;;;3.95;2.80;;;;;;;;;;5029412;28;20523;-85
2022/04/22 10:27:24;;;;;;;3.45;2.92;;;;;;;;;;5028501;28;20160;-88
2022/04/22 10:29:51;;;;;;;4.05;2.95;;;;;;;;;;5032219;28;20095;-91
2022/04/22 10:32:18;;;;;;;3.78;3.00;;;;;;;;;;5015279;28;20037;-90
2022/04/22 10:34:45;;;;;;;3.45;2.90;;;;;;;;;;5027913;28;20045;-83
2022/04/22 10:37:21;;;;;;;5.82;3.13;;;;;;;;;;5003843;28;20076;-84
2022/04/22 10:39:51;;;;;;;3.72;2.90;;;;;;;;;;5024752;28;20041;-83
2022/04/22 10:42:17;;;;;;;6.95;3.75;;;;;;;;;;5008474;28;20057;-83
2022/04/22 10:47:43;;;;;;;8.35;3.22;;;;;;;;;;4976984;28;20047;-83
2022/04/22 10:50:31;;;;;;;4.55;2.88;;;;;;;;;;5026899;28;20041;-84
2022/04/22 10:53:23;;;;;;;8.60;3.80;;;;;;;;;;5016288;28;20053;-87
2022/04/22 10:55:49;;;;;;;7.53;3.55;;;;;;;;;;5020266;28;20065;-87
2022/04/22 10:58:19;;;;;;;6.90;3.53;;;;;;;;;;5009649;28;20045;-86
2022/04/22 11:00:49;;;;;;;7.68;3.83;;;;;;;;;;5011044;28;20053;-88
2022/04/22 11:03:20;;;;;;;6.15;3.53;;;;;;;;;;5025364;28;20203;-88
2022/04/22 11:05:49;;;;;;;8.02;3.90;;;;;;;;;;5007407;28;20045;-90
2022/04/22 11:08:24;;;;;;;7.65;3.53;;;;;;;;;;5028636;28;20049;-89
2022/04/22 11:10:53;;;;;;;6.90;4.13;;;;;;;;;;5013141;28;20046;-88
2022/04/22 11:13:36;;;;;;;9.02;3.95;;;;;;;;;;5004174;28;20045;-87
2022/04/22 11:16:19;;;;;;;6.95;3.63;;;;;;;;;;5022385;28;20068;-86
2022/04/22 11:19:01;;;;;;;6.60;3.90;;;;;;;;;;5038742;28;20049;-87
2022/04/22 11:21:30;;;;;;;5.70;3.65;;;;;;;;;;5013547;28;20058;-88
2022/04/22 11:23:57;;;;;;;6.70;4.00;;;;;;;;;;5024794;28;20045;-88
2022/04/22 11:26:24;;;;;;;5.70;3.78;;;;;;;;;;5013082;28;20208;-87
2022/04/22 11:28:50;;;;;;;7.80;4.15;;;;;;;;;;5031277;28;20370;-87
2022/04/22 11:31:18;;;;;;;8.90;3.80;;;;;;;;;;5008577;28;20048;-88
2022/04/22 11:33:45;;;;;;;8.10;4.03;;;;;;;;;;5018307;28;20512;-87
2022/04/22 11:36:12;;;;;;;9.05;4.20;;;;;;;;;;5010939;28;20504;-90
2022/04/22 11:38:48;;;;;;;7.28;4.18;;;;;;;;;;5003742;28;20042;-88
2022/04/22 11:41:14;;;;;;;7.80;4.15;;;;;;;;;;5011526;28;20485;-88
2022/04/22 11:43:41;;;;;;;7.80;3.92;;;;;;;;;;5014607;28;20061;-89
2022/04/22 11:46:07;;;;;;;7.75;4.13;;;;;;;;;;5012296;28;20412;-90
2022/04/22 11:48:33;;;;;;;8.35;4.40;;;;;;;;;;5029482;28;20150;-88
2022/04/22 11:51:00;;;;;;;7.57;4.25;;;;;;;;;;5030307;28;20053;-89
2022/04/22 11:53:29;;;;;;;5.97;3.97;;;;;;;;;;5024077;28;20045;-90
2022/04/22 11:55:55;;;;;;;6.75;4.63;;;;;;;;;;5024874;28;20049;-91
2022/04/22 11:58:24;;;;;;;8.70;4.55;;;;;;;;;;5029658;28;20048;-88
2022/04/22 12:06:25;;;;;;;7.88;4.68;;;;;;;;;;5025933;28;20408;-90
2022/04/22 12:08:53;;;;;;;10.20;5.00;;;;;;;;;;5025219;28;20045;-90
2022/04/22 12:11:20;;;;;;;5.25;4.10;;;;;;;;;;5013025;28;20033;-89
2022/04/22 12:13:47;;;;;;;9.13;4.97;;;;;;;;;;5025033;28;20048;-89
2022/04/22 12:16:17;;;;;;;6.65;4.78;;;;;;;;;;5009461;28;20100;-85
2022/04/22 12:18:43;;;;;;;8.48;5.10;;;;;;;;;;5009689;28;20045;-89
2022/04/22 12:21:11;;;;;;;11.32;4.70;;;;;;;;;;5012470;28;20124;-89
2022/04/22 12:23:39;;;;;;;6.28;4.38;;;;;;;;;;5012531;28;20054;-91
2022/04/22 12:26:06;;;;;;;9.07;4.85;;;;;;;;;;5012868;28;20481;-90
2022/04/22 12:28:32;;;;;;;6.28;4.90;;;;;;;;;;5011755;28;20061;-90
2022/04/22 12:30:58;;;;;;;7.28;5.25;;;;;;;;;;5005257;28;20439;-90
2022/04/22 12:33:24;;;;;;;10.75;5.22;;;;;;;;;;5026965;28;20133;-89
2022/04/22 12:36:05;;;;;;;10.02;5.30;;;;;;;;;;5027945;28;20045;-89
2022/04/22 12:38:32;;;;;;;8.45;5.15;;;;;;;;;;5011583;28;20057;-89
2022/04/22 12:40:58;;;;;;;10.13;5.45;;;;;;;;;;5028218;28;20045;-90
2022/04/22 12:43:28;;;;;;;6.97;4.63;;;;;;;;;;5028541;28;20438;-90
2022/04/22 12:54:16;;;;;;;7.82;4.70;;;;;;;;;;5029177;28;20041;-90
2022/04/22 12:56:50;;;;;;;9.25;5.50;;;;;;;;;;5008587;28;20100;-89
2022/04/22 12:59:16;;;;;;;7.07;4.93;;;;;;;;;;5018687;28;20496;-90
2022/04/22 13:01:42;;;;;;;8.82;4.88;;;;;;;;;;5029844;28;20043;-90
2022/04/22 13:04:08;;;;;;;6.18;5.18;;;;;;;;;;5027935;28;20041;-90
2022/04/22 13:06:40;;;;;;;6.88;4.88;;;;;;;;;;5029995;28;20046;-91
2022/04/22 13:09:06;;;;;;;7.05;5.25;;;;;;;;;;5011483;28;20061;-91
2022/04/22 13:11:33;;;;;;;9.57;5.00;;;;;;;;;;5010973;28;20052;-90
2022/04/22 13:14:00;;;;;;;5.20;4.60;;;;;;;;;;5020408;28;20048;-89
2022/04/22 13:16:26;;;;;;;6.00;4.90;;;;;;;;;;5048046;28;20152;-88
2022/04/22 13:18:52;;;;;;;8.98;5.07;;;;;;;;;;5018099;28;20112;-90
2022/04/22 13:21:18;;;;;;;8.85;5.13;;;;;;;;;;5006667;28;20077;-90
2022/04/22 13:23:45;;;;;;;8.80;5.47;;;;;;;;;;5013161;28;20041;-90
2022/04/22 13:26:11;;;;;;;7.20;5.43;;;;;;;;;;5011354;28;20568;-89
2022/04/22 13:28:37;;;;;;;9.15;6.65;;;;;;;;;;5013242;28;20493;-91
2022/04/22 13:31:03;;;;;;;8.57;5.45;;;;;;;;;;5008834;28;20041;-89
2022/04/22 13:33:32;;;;;;;8.65;5.15;;;;;;;;;;5043091;28;20034;-89
2022/04/22 13:36:04;;;;;;;7.95;5.57;;;;;;;;;;5017055;28;20606;-91
2022/04/22 13:38:32;;;;;;;9.32;5.45;;;;;;;;;;5014859;28;20128;-89
2022/04/22 13:40:58;;;;;;;6.43;5.78;;;;;;;;;;5016327;28;20523;-90
2022/04/22 13:43:28;;;;;;;7.03;5.38;;;;;;;;;;5008462;28;20070;-90
2022/04/22 13:54:11;;;;;;;7.47;5.15;;;;;;;;;;5016747;28;20049;-89
2022/04/22 13:56:37;;;;;;;7.38;5.65;;;;;;;;;;5029477;28;20065;-91
2022/04/22 13:59:03;;;;;;;8.98;5.97;;;;;;;;;;5031361;28;20400;-91
2022/04/22 14:01:29;;;;;;;7.05;5.65;;;;;;;;;;5013929;28;20041;-89
2022/04/22 14:03:55;;;;;;;5.20;4.70;;;;;;;;;;5015820;28;20042;-92
2022/04/22 14:06:21;;;;;;;9.43;5.22;;;;;;;;;;5032014;28;20053;-89
2022/04/22 14:08:47;;;;;;;5.15;4.65;;;;;;;;;;5028351;28;20051;-87
2022/04/22 14:11:14;;;;;;;5.43;4.75;;;;;;;;;;5030604;28;20552;-89
2022/04/22 14:13:40;;;;;;;7.32;4.90;;;;;;;;;;5027113;28;20053;-88
2022/04/22 14:16:06;;;;;;;6.18;4.90;;;;;;;;;;5014543;28;20041;-89
2022/04/22 14:18:34;;;;;;;7.13;4.70;;;;;;;;;;5036464;28;20045;-90
2022/04/22 14:21:03;;;;;;;8.43;5.03;;;;;;;;;;5035020;28;20093;-88
2022/04/22 14:23:30;;;;;;;7.40;4.47;;;;;;;;;;5015307;28;20045;-90
2022/04/22 14:25:56;;;;;;;10.43;4.50;;;;;;;;;;5015363;28;20045;-90
2022/04/22 14:28:26;;;;;;;6.60;4.85;;;;;;;;;;5014144;28;20053;-89
2022/04/22 14:30:53;;;;;;;7.10;4.82;;;;;;;;;;5012197;28;20449;-89
2022/04/22 14:33:19;;;;;;;5.68;4.50;;;;;;;;;;5024028;28;20137;-88
2022/04/22 14:35:45;;;;;;;7.22;4.50;;;;;;;;;;5012141;28;20046;-88
2022/04/22 14:38:11;;;;;;;7.78;4.38;;;;;;;;;;5032278;28;20045;-88
2022/04/22 14:40:38;;;;;;;7.15;4.55;;;;;;;;;;5032942;28;20049;-89
2022/04/22 14:43:06;;;;;;;4.75;4.10;;;;;;;;;;5013767;28;20052;-89
2022/04/22 14:45:36;;;;;;;6.65;4.47;;;;;;;;;;5010466;28;20091;-88
2022/04/22 14:48:02;;;;;;;7.18;4.25;;;;;;;;;;5030246;28;20489;-88
2022/04/22 14:50:28;;;;;;;5.32;4.38;;;;;;;;;;5030494;28;20049;-90
2022/04/22 14:52:56;;;;;;;9.07;4.30;;;;;;;;;;5013570;28;20091;-91
2022/04/22 14:55:22;;;;;;;6.07;4.47;;;;;;;;;;5010909;28;20123;-89
2022/04/22 14:57:48;;;;;;;5.85;5.25;;;;;;;;;;5009655;28;20498;-87
2022/04/22 15:00:15;;;;;;;8.77;4.00;;;;;;;;;;5029030;28;20048;-87
2022/04/22 15:02:41;;;;;;;5.70;4.50;;;;;;;;;;5008782;28;20454;-86
2022/04/22 15:05:08;;;;;;;7.07;4.18;;;;;;;;;;5020881;28;20046;-88
2022/04/22 15:07:34;;;;;;;5.35;4.20;;;;;;;;;;5030412;28;20041;-88
2022/04/22 15:10:00;;;;;;;6.88;4.30;;;;;;;;;;5032274;28;20107;-87
2022/04/22 15:12:28;;;;;;;5.47;4.00;;;;;;;;;;5008913;28;20468;-88
2022/04/22 15:14:54;;;;;;;6.72;4.20;;;;;;;;;;5011285;28;20060;-88
2022/04/22 15:25:35;;;;;;;5.88;4.28;;;;;;;;;;5007218;28;20057;-88
2022/04/22 15:28:01;;;;;;;5.18;4.28;;;;;;;;;;5025088;28;20049;-90
2022/04/22 15:31:06;;;;;;;7.30;4.43;;;;;;;;;;5006509;28;20107;-90
2022/04/22 15:33:35;;;;;;;7.35;4.55;;;;;;;;;;4973025;28;20051;-90
2022/04/22 15:36:04;;;;;;;5.05;4.28;;;;;;;;;;4969613;28;20483;-88
2022/04/22 15:38:30;;;;;;;6.35;4.13;;;;;;;;;;4980275;28;20093;-89
2022/04/22 15:40:56;;;;;;;6.35;4.18;;;;;;;;;;5029729;28;20555;-89
2022/04/22 15:43:22;;;;;;;8.10;5.90;;;;;;;;;;5030062;28;20057;-89
2022/04/22 15:45:49;;;;;;;6.93;4.28;;;;;;;;;;5013133;28;20050;-89
2022/04/22 15:48:15;;;;;;;9.05;4.60;;;;;;;;;;5008955;28;20603;-88
2022/04/22 15:50:42;;;;;;;4.97;4.20;;;;;;;;;;5037571;28;20037;-89
2022/04/22 15:53:08;;;;;;;6.30;4.38;;;;;;;;;;5028634;28;20045;-90
2022/04/22 15:55:34;;;;;;;8.70;4.47;;;;;;;;;;5029289;28;20042;-90
2022/04/22 15:58:01;;;;;;;5.97;4.43;;;;;;;;;;5011975;28;20049;-89
2022/04/22 16:00:27;;;;;;;5.93;4.50;;;;;;;;;;5010236;28;20046;-88
2022/04/22 16:02:53;;;;;;;6.88;4.47;;;;;;;;;;5028243;28;20377;-87
2022/04/22 16:05:19;;;;;;;6.93;4.22;;;;;;;;;;5012085;28;20125;-86